createdAt,value
2018-02-19T00:00:38.390Z,0.40
2018-02-19T00:01:41.726Z,0.50
2018-02-19T00:02:44.242Z,0.50
2018-02-19T00:03:47.526Z,0.50
2018-02-19T00:04:50.813Z,0.50
2018-02-19T00:05:53.346Z,0.50
2018-02-19T00:06:55.908Z,0.50
2018-02-19T00:07:58.432Z,0.50
2018-02-19T00:09:00.952Z,0.50
2018-02-19T00:10:03.482Z,0.50
2018-02-19T00:11:06.007Z,0.40
2018-02-19T00:12:09.343Z,0.40
2018-02-19T00:13:11.871Z,0.40
2018-02-19T00:14:14.407Z,0.40
2018-02-19T00:15:17.688Z,0.30
2018-02-19T00:16:20.990Z,0.30
2018-02-19T00:17:24.335Z,0.30
2018-02-19T00:18:26.864Z,0.30
2018-02-19T00:19:29.376Z,0.30
2018-02-19T00:20:31.953Z,0.30
2018-02-19T00:21:34.472Z,0.40
2018-02-19T00:22:37.046Z,0.40
2018-02-19T00:23:39.573Z,0.30
2018-02-19T00:24:42.872Z,0.20
2018-02-19T00:25:45.397Z,0.20
2018-02-19T00:26:47.922Z,0.20
2018-02-19T00:27:50.498Z,0.10
2018-02-19T00:28:53.021Z,0.10
2018-02-19T00:29:56.304Z,0.00
2018-02-19T00:30:59.593Z,0.00
2018-02-19T00:32:02.123Z,0.00
2018-02-19T00:33:04.678Z,0.00
2018-02-19T00:34:07.249Z,0.00
2018-02-19T00:35:09.774Z,0.10
2018-02-19T00:36:12.294Z,0.10
2018-02-19T00:37:14.830Z,0.10
2018-02-19T00:38:17.361Z,0.20
2018-02-19T00:39:19.934Z,0.10
2018-02-19T00:40:22.459Z,0.10
2018-02-19T00:41:24.987Z,0.10
2018-02-19T00:42:27.501Z,0.00
2018-02-19T00:43:30.790Z,-0.10
2018-02-19T00:44:34.135Z,-0.10
2018-02-19T00:45:36.668Z,-0.10
2018-02-19T00:46:39.192Z,-0.20
2018-02-19T00:47:41.718Z,-0.20
2018-02-19T00:48:44.241Z,-0.20
2018-02-19T00:49:47.570Z,-0.40
2018-02-19T00:50:50.113Z,-0.40
2018-02-19T00:51:52.641Z,-0.40
2018-02-19T00:52:55.160Z,-0.40
2018-02-19T00:53:57.689Z,-0.40
2018-02-19T00:55:00.282Z,-0.40
2018-02-19T00:56:02.810Z,-0.40
2018-02-19T00:57:05.342Z,-0.40
2018-02-19T00:58:07.906Z,-0.50
2018-02-19T00:59:10.473Z,-0.50
2018-02-19T01:00:12.983Z,-0.60
2018-02-19T01:01:16.281Z,-0.60
2018-02-19T01:02:18.828Z,-0.60
2018-02-19T01:03:22.250Z,-0.40
2018-02-19T01:04:24.773Z,-0.40
2018-02-19T01:05:27.299Z,-0.30
2018-02-19T01:06:29.934Z,-0.30
2018-02-19T01:07:32.457Z,-0.30
2018-02-19T01:08:35.037Z,-0.20
2018-02-19T01:09:37.553Z,-0.10
2018-02-19T01:10:40.077Z,-0.10
2018-02-19T01:11:42.629Z,-0.10
2018-02-19T01:12:45.163Z,0.00
2018-02-19T01:13:47.724Z,0.00
2018-02-19T01:14:50.247Z,0.00
2018-02-19T01:15:53.536Z,0.00
2018-02-19T01:16:56.820Z,0.00
2018-02-19T01:18:00.117Z,0.00
2018-02-19T01:19:02.676Z,0.00
2018-02-19T01:20:05.969Z,0.10
2018-02-19T01:21:08.492Z,0.10
2018-02-19T01:22:11.009Z,0.20
2018-02-19T01:23:13.540Z,0.20
2018-02-19T01:24:16.869Z,0.20
2018-02-19T01:25:19.410Z,0.20
2018-02-19T01:26:22.708Z,0.20
2018-02-19T01:27:25.235Z,0.20
2018-02-19T01:28:27.752Z,0.20
2018-02-19T01:29:30.318Z,0.20
2018-02-19T01:30:32.837Z,0.20
2018-02-19T01:31:35.359Z,0.20
2018-02-19T01:32:37.897Z,0.20
2018-02-19T01:33:40.430Z,0.20
2018-02-19T01:34:42.998Z,0.10
2018-02-19T01:35:45.530Z,0.10
2018-02-19T01:36:48.064Z,0.10
2018-02-19T01:37:50.593Z,0.10
2018-02-19T01:38:53.118Z,0.10
2018-02-19T01:39:55.685Z,0.10
2018-02-19T01:40:58.228Z,0.20
2018-02-19T01:42:00.748Z,0.20
2018-02-19T01:43:03.287Z,0.20
2018-02-19T01:44:05.822Z,0.20
2018-02-19T01:45:08.384Z,0.20
2018-02-19T01:46:11.664Z,0.20
2018-02-19T01:47:14.946Z,0.20
2018-02-19T01:48:18.271Z,0.20
2018-02-19T01:49:20.795Z,0.20
2018-02-19T01:50:24.129Z,0.10
2018-02-19T01:51:26.651Z,0.10
2018-02-19T01:52:29.937Z,0.00
2018-02-19T01:53:33.225Z,-0.10
2018-02-19T01:54:35.755Z,-0.10
2018-02-19T01:55:38.320Z,-0.10
2018-02-19T01:56:40.848Z,-0.10
2018-02-19T01:57:43.377Z,-0.10
2018-02-19T01:58:46.697Z,-0.30
2018-02-19T01:59:49.236Z,-0.30
2018-02-19T02:00:52.576Z,-0.30
2018-02-19T02:01:55.100Z,-0.30
2018-02-19T02:02:57.637Z,-0.30
2018-02-19T02:04:00.934Z,-0.20
2018-02-19T02:05:04.224Z,-0.10
2018-02-19T02:06:06.796Z,-0.10
2018-02-19T02:07:09.352Z,-0.10
2018-02-19T02:08:12.646Z,0.00
2018-02-19T02:09:15.167Z,-0.10
2018-02-19T02:10:17.690Z,0.00
2018-02-19T02:11:20.240Z,0.00
2018-02-19T02:12:22.757Z,0.00
2018-02-19T02:13:25.288Z,0.10
2018-02-19T02:14:27.806Z,0.10
2018-02-19T02:15:30.324Z,0.10
2018-02-19T02:16:32.945Z,0.10
2018-02-19T02:17:35.470Z,0.10
2018-02-19T02:18:38.025Z,0.20
2018-02-19T02:19:40.545Z,0.20
2018-02-19T02:20:43.830Z,0.20
2018-02-19T02:21:47.166Z,0.20
2018-02-19T02:22:49.697Z,0.20
2018-02-19T02:23:52.982Z,0.20
2018-02-19T02:24:56.270Z,0.20
2018-02-19T02:25:58.793Z,0.10
2018-02-19T02:27:01.362Z,0.20
2018-02-19T02:28:03.882Z,0.10
2018-02-19T02:29:06.449Z,0.10
2018-02-19T02:30:09.719Z,0.10
2018-02-19T02:31:12.250Z,0.10
2018-02-19T02:32:14.810Z,0.10
2018-02-19T02:33:17.331Z,0.10
2018-02-19T02:34:19.856Z,0.10
2018-02-19T02:35:22.379Z,0.10
2018-02-19T02:36:24.907Z,0.10
2018-02-19T02:37:28.242Z,0.10
2018-02-19T02:38:30.781Z,0.00
2018-02-19T02:39:33.307Z,0.10
2018-02-19T02:40:35.844Z,0.10
2018-02-19T02:41:38.367Z,0.10
2018-02-19T02:42:41.187Z,0.10
2018-02-19T02:43:43.713Z,0.10
2018-02-19T02:44:46.244Z,0.00
2018-02-19T02:45:49.549Z,0.00
2018-02-19T02:46:52.074Z,0.00
2018-02-19T02:47:54.641Z,0.10
2018-02-19T02:48:57.164Z,0.10
2018-02-19T02:49:59.686Z,0.00
2018-02-19T02:51:02.220Z,0.00
2018-02-19T02:52:04.748Z,0.00
2018-02-19T02:53:07.317Z,0.00
2018-02-19T02:54:09.842Z,0.00
2018-02-19T02:55:12.382Z,0.00
2018-02-19T02:56:14.923Z,-0.10
2018-02-19T02:57:17.441Z,-0.10
2018-02-19T02:58:20.010Z,-0.10
2018-02-19T02:59:22.536Z,-0.10
2018-02-19T03:00:25.073Z,-0.10
2018-02-19T03:01:27.605Z,-0.20
2018-02-19T03:02:30.139Z,-0.20
2018-02-19T03:03:32.795Z,-0.20
2018-02-19T03:04:35.381Z,-0.20
2018-02-19T03:05:37.934Z,-0.20
2018-02-19T03:06:40.608Z,-0.30
2018-02-19T03:07:43.148Z,-0.30
2018-02-19T03:08:45.716Z,-0.30
2018-02-19T03:09:48.250Z,-0.30
2018-02-19T03:10:50.849Z,-0.30
2018-02-19T03:11:53.375Z,-0.30
2018-02-19T03:12:55.903Z,-0.40
2018-02-19T03:13:58.473Z,-0.40
2018-02-19T03:15:01.004Z,-0.30
2018-02-19T03:16:04.309Z,-0.30
2018-02-19T03:17:06.899Z,-0.30
2018-02-19T03:18:09.408Z,-0.30
2018-02-19T03:19:12.746Z,-0.30
2018-02-19T03:20:15.269Z,-0.30
2018-02-19T03:21:18.573Z,-0.30
2018-02-19T03:22:21.113Z,-0.30
2018-02-19T03:23:24.426Z,-0.40
2018-02-19T03:24:26.993Z,-0.40
2018-02-19T03:25:29.525Z,-0.40
2018-02-19T03:26:32.827Z,-0.30
2018-02-19T03:27:36.121Z,-0.40
2018-02-19T03:28:38.649Z,-0.40
2018-02-19T03:29:41.215Z,-0.30
2018-02-19T03:30:44.644Z,-0.50
2018-02-19T03:31:47.169Z,-0.50
2018-02-19T03:32:49.696Z,-0.50
2018-02-19T03:33:52.260Z,-0.50
2018-02-19T03:34:54.790Z,-0.60
2018-02-19T03:35:58.141Z,-0.60
2018-02-19T03:37:00.672Z,-0.60
2018-02-19T03:38:03.201Z,-0.60
2018-02-19T03:39:06.490Z,-0.60
2018-02-19T03:40:09.782Z,-0.70
2018-02-19T03:41:12.363Z,-0.70
2018-02-19T03:42:14.896Z,-0.60
2018-02-19T03:43:18.190Z,-0.70
2018-02-19T03:44:20.728Z,-0.70
2018-02-19T03:45:23.256Z,-0.60
2018-02-19T03:46:25.851Z,-0.60
2018-02-19T03:47:28.385Z,-0.60
2018-02-19T03:48:30.919Z,-0.60
2018-02-19T03:49:34.216Z,-0.50
2018-02-19T03:50:36.742Z,-0.60
2018-02-19T03:51:39.313Z,-0.50
2018-02-19T03:52:41.844Z,-0.50
2018-02-19T03:53:44.362Z,-0.50
2018-02-19T03:54:47.653Z,-0.40
2018-02-19T03:55:50.953Z,-0.50
2018-02-19T03:56:53.517Z,-0.50
2018-02-19T03:57:56.040Z,-0.50
2018-02-19T03:58:58.583Z,-0.50
2018-02-19T04:00:01.114Z,-0.50
2018-02-19T04:01:03.654Z,-0.40
2018-02-19T04:02:06.221Z,-0.40
2018-02-19T04:03:08.788Z,-0.50
2018-02-19T04:04:11.314Z,-0.40
2018-02-19T04:05:13.855Z,-0.40
2018-02-19T04:06:16.372Z,-0.40
2018-02-19T04:07:18.917Z,-0.30
2018-02-19T04:08:21.493Z,-0.30
2018-02-19T04:09:24.009Z,-0.40
2018-02-19T04:10:26.579Z,-0.40
2018-02-19T04:11:29.850Z,-0.40
2018-02-19T04:12:33.150Z,-0.40
2018-02-19T04:13:35.704Z,-0.40
2018-02-19T04:14:39.103Z,-0.30
2018-02-19T04:15:41.633Z,-0.40
2018-02-19T04:16:44.506Z,-0.30
2018-02-19T04:17:47.025Z,-0.30
2018-02-19T04:18:49.553Z,-0.30
2018-02-19T04:19:52.846Z,-0.30
2018-02-19T04:20:56.138Z,-0.30
2018-02-19T04:21:58.704Z,-0.30
2018-02-19T04:23:01.233Z,-0.30
2018-02-19T04:24:03.755Z,-0.30
2018-02-19T04:25:06.285Z,-0.30
2018-02-19T04:26:09.584Z,-0.30
2018-02-19T04:27:12.160Z,-0.30
2018-02-19T04:28:14.685Z,-0.30
2018-02-19T04:29:17.227Z,-0.30
2018-02-19T04:30:19.758Z,-0.40
2018-02-19T04:31:22.288Z,-0.30
2018-02-19T04:32:25.635Z,-0.30
2018-02-19T04:33:28.161Z,-0.40
2018-02-19T04:34:31.453Z,-0.30
2018-02-19T04:35:33.981Z,-0.40
2018-02-19T04:36:36.513Z,-0.40
2018-02-19T04:37:39.084Z,-0.40
2018-02-19T04:38:41.602Z,-0.40
2018-02-19T04:39:44.905Z,-0.50
2018-02-19T04:40:47.431Z,-0.50
2018-02-19T04:41:49.957Z,-0.50
2018-02-19T04:42:56.198Z,-0.50
2018-02-19T04:43:58.721Z,-0.50
2018-02-19T04:46:41.233Z,-0.70
2018-02-19T04:47:43.761Z,-0.70
2018-02-19T04:48:46.481Z,-0.70
2018-02-19T04:49:49.788Z,-0.80
2018-02-19T04:50:52.313Z,-0.80
2018-02-19T04:51:54.837Z,-0.80
2018-02-19T04:52:57.374Z,-0.80
2018-02-19T04:54:00.707Z,-0.80
2018-02-19T04:55:03.233Z,-0.80
2018-02-19T04:56:05.765Z,-0.70
2018-02-19T04:57:09.058Z,-0.70
2018-02-19T04:58:12.344Z,-0.60
2018-02-19T04:59:15.676Z,-0.60
2018-02-19T05:00:18.202Z,-0.60
2018-02-19T05:01:21.497Z,-0.60
2018-02-19T05:02:24.033Z,-0.60
2018-02-19T05:03:26.565Z,-0.60
2018-02-19T05:04:29.139Z,-0.60
2018-02-19T05:05:32.446Z,-0.70
2018-02-19T05:06:34.976Z,-0.70
2018-02-19T05:07:37.702Z,-0.70
2018-02-19T05:08:41.004Z,-0.70
2018-02-19T05:09:43.571Z,-0.70
2018-02-19T05:10:46.106Z,-0.70
2018-02-19T05:11:49.574Z,-0.80
2018-02-19T05:12:52.146Z,-0.80
2018-02-19T05:13:54.672Z,-0.70
2018-02-19T05:14:57.201Z,-0.70
2018-02-19T05:16:00.505Z,-0.70
2018-02-19T05:17:03.098Z,-0.80
2018-02-19T05:18:05.664Z,-0.70
2018-02-19T05:19:08.186Z,-0.70
2018-02-19T05:20:11.482Z,-0.70
2018-02-19T05:21:14.781Z,-0.70
2018-02-19T05:22:17.349Z,-0.70
2018-02-19T05:23:19.882Z,-0.70
2018-02-19T05:24:23.183Z,-0.80
2018-02-19T05:25:26.482Z,-0.80
2018-02-19T05:26:29.058Z,-0.80
2018-02-19T05:27:31.594Z,-0.80
2018-02-19T05:28:34.887Z,-0.70
2018-02-19T05:29:37.453Z,-0.70
2018-02-19T05:30:39.982Z,-0.70
2018-02-19T05:31:42.538Z,-0.70
2018-02-19T05:32:45.066Z,-0.70
2018-02-19T05:33:47.589Z,-0.80
2018-02-19T05:34:50.124Z,-0.80
2018-02-19T05:35:52.647Z,-0.80
2018-02-19T05:36:55.212Z,-0.70
2018-02-19T05:37:57.748Z,-0.70
2018-02-19T05:39:00.273Z,-0.70
2018-02-19T05:40:02.797Z,-0.70
2018-02-19T05:41:06.094Z,-0.70
2018-02-19T05:42:09.418Z,-0.70
2018-02-19T05:43:11.945Z,-0.70
2018-02-19T05:44:15.246Z,-0.70
2018-02-19T05:45:17.952Z,-0.70
2018-02-19T05:46:20.679Z,-0.70
2018-02-19T05:47:23.255Z,-0.70
2018-02-19T05:48:25.777Z,-0.70
2018-02-19T05:49:28.306Z,-0.70
2018-02-19T05:50:30.863Z,-0.70
2018-02-19T05:51:33.401Z,-0.70
2018-02-19T05:52:36.693Z,-0.60
2018-02-19T05:53:39.248Z,-0.60
2018-02-19T05:54:42.565Z,-0.70
2018-02-19T05:55:45.099Z,-0.70
2018-02-19T05:56:48.485Z,-0.70
2018-02-19T05:57:51.769Z,-0.60
2018-02-19T05:58:55.066Z,-0.60
2018-02-19T05:59:57.597Z,-0.60
2018-02-19T06:01:00.161Z,-0.50
2018-02-19T06:02:02.683Z,-0.50
2018-02-19T06:03:05.216Z,-0.50
2018-02-19T06:04:08.500Z,-0.50
2018-02-19T06:05:11.789Z,-0.50
2018-02-19T06:06:14.928Z,-0.50
2018-02-19T06:07:17.450Z,-0.50
2018-02-19T06:08:19.979Z,-0.50
2018-02-19T06:09:22.511Z,-0.60
2018-02-19T06:10:25.035Z,-0.60
2018-02-19T06:11:27.603Z,-0.60
2018-02-19T06:12:30.152Z,-0.60
2018-02-19T06:13:33.449Z,-0.70
2018-02-19T06:14:36.741Z,-0.70
2018-02-19T06:15:39.297Z,-0.70
2018-02-19T06:16:42.613Z,-0.70
2018-02-19T06:17:45.146Z,-0.70
2018-02-19T06:18:48.429Z,-0.70
2018-02-19T06:19:51.721Z,-0.70
2018-02-19T06:20:54.289Z,-0.70
2018-02-19T06:21:56.815Z,-0.70
2018-02-19T06:22:59.349Z,-0.70
2018-02-19T06:24:01.911Z,-0.60
2018-02-19T06:25:04.441Z,-0.60
2018-02-19T06:26:07.725Z,-0.60
2018-02-19T06:27:11.041Z,-0.70
2018-02-19T06:28:13.588Z,-0.70
2018-02-19T06:29:16.145Z,-0.70
2018-02-19T06:30:19.441Z,-0.70
2018-02-19T06:31:22.090Z,-0.70
2018-02-19T06:32:25.403Z,-0.70
2018-02-19T06:33:27.953Z,-0.80
2018-02-19T06:34:30.543Z,-0.80
2018-02-19T06:35:33.070Z,-0.80
2018-02-19T06:36:36.378Z,-0.80
2018-02-19T06:37:38.906Z,-0.80
2018-02-19T06:38:41.430Z,-0.80
2018-02-19T06:39:44.002Z,-0.90
2018-02-19T06:40:46.558Z,-0.90
2018-02-19T06:41:49.118Z,-0.90
2018-02-19T06:42:51.816Z,-0.90
2018-02-19T06:43:54.342Z,-0.90
2018-02-19T06:44:56.870Z,-0.90
2018-02-19T06:45:59.429Z,-0.90
2018-02-19T06:47:01.954Z,-0.80
2018-02-19T06:48:04.477Z,-0.70
2018-02-19T06:49:07.045Z,-0.70
2018-02-19T06:50:09.575Z,-0.70
2018-02-19T06:51:12.093Z,-0.70
2018-02-19T06:52:15.385Z,-0.70
2018-02-19T06:53:17.924Z,-0.70
2018-02-19T06:54:20.507Z,-0.60
2018-02-19T06:55:23.797Z,-0.60
2018-02-19T06:56:27.086Z,-0.60
2018-02-19T06:57:29.625Z,-0.60
2018-02-19T06:58:32.137Z,-0.60
2018-02-19T06:59:34.695Z,-0.60
2018-02-19T07:00:37.222Z,-0.50
2018-02-19T07:01:39.746Z,-0.50
2018-02-19T07:02:42.281Z,-0.40
2018-02-19T07:03:44.841Z,-0.40
2018-02-19T07:04:48.197Z,-0.40
2018-02-19T07:05:50.724Z,-0.40
2018-02-19T07:06:53.281Z,-0.40
2018-02-19T07:07:55.812Z,-0.30
2018-02-19T07:08:59.135Z,-0.50
2018-02-19T07:10:01.671Z,-0.50
2018-02-19T07:11:04.964Z,-0.40
2018-02-19T07:12:08.294Z,-0.30
2018-02-19T07:13:10.815Z,-0.30
2018-02-19T07:14:14.154Z,-0.30
2018-02-19T07:15:16.691Z,-0.30
2018-02-19T07:16:19.212Z,-0.30
2018-02-19T07:17:21.736Z,-0.30
2018-02-19T07:18:25.037Z,-0.20
2018-02-19T07:19:27.599Z,-0.20
2018-02-19T07:20:30.844Z,-0.20
2018-02-19T07:21:33.407Z,-0.20
2018-02-19T07:22:36.154Z,-0.20
2018-02-19T07:23:39.447Z,-0.20
2018-02-19T07:24:42.738Z,-0.10
2018-02-19T07:25:45.307Z,-0.10
2018-02-19T07:26:47.833Z,-0.10
2018-02-19T07:27:50.362Z,-0.10
2018-02-19T07:28:52.886Z,-0.10
2018-02-19T07:29:56.182Z,-0.10
2018-02-19T07:30:59.600Z,-0.10
2018-02-19T07:32:02.176Z,-0.20
2018-02-19T07:33:04.706Z,-0.10
2018-02-19T07:34:07.238Z,-0.10
2018-02-19T07:35:09.767Z,0.00
2018-02-19T07:36:12.290Z,-0.10
2018-02-19T07:37:15.607Z,0.00
2018-02-19T07:38:18.125Z,0.00
2018-02-19T07:39:20.649Z,0.10
2018-02-19T07:40:23.219Z,0.10
2018-02-19T07:41:25.744Z,0.10
2018-02-19T07:42:29.033Z,0.10
2018-02-19T07:43:32.363Z,0.10
2018-02-19T07:44:34.886Z,0.10
2018-02-19T07:45:37.421Z,0.10
2018-02-19T07:46:39.954Z,0.10
2018-02-19T07:47:42.486Z,0.20
2018-02-19T07:48:45.042Z,0.20
2018-02-19T07:49:48.329Z,0.20
2018-02-19T07:50:51.687Z,0.10
2018-02-19T07:51:54.214Z,0.10
2018-02-19T07:52:56.746Z,0.10
2018-02-19T07:54:00.033Z,0.20
2018-02-19T07:55:03.328Z,0.30
2018-02-19T07:56:06.001Z,0.30
2018-02-19T07:57:08.518Z,0.30
2018-02-19T07:58:11.047Z,0.40
2018-02-19T07:59:13.566Z,0.40
2018-02-19T08:00:16.861Z,0.50
2018-02-19T08:01:20.186Z,0.60
2018-02-19T08:02:22.713Z,0.50
2018-02-19T08:03:26.005Z,0.70
2018-02-19T08:04:28.524Z,0.70
2018-02-19T08:05:31.086Z,0.70
2018-02-19T08:06:33.614Z,0.70
2018-02-19T08:07:36.132Z,0.60
2018-02-19T08:08:38.657Z,0.50
2018-02-19T08:09:41.214Z,0.50
2018-02-19T08:10:43.742Z,0.40
2018-02-19T08:11:47.042Z,0.40
2018-02-19T08:12:50.326Z,0.40
2018-02-19T08:13:53.608Z,0.40
2018-02-19T08:14:56.987Z,0.50
2018-02-19T08:16:00.278Z,0.50
2018-02-19T08:17:03.608Z,0.50
2018-02-19T08:18:06.113Z,0.50
2018-02-19T08:20:17.717Z,0.50
2018-02-19T08:21:21.014Z,0.50
2018-02-19T08:22:23.535Z,0.60
2018-02-19T08:23:26.082Z,0.60
2018-02-19T08:24:28.596Z,0.50
2018-02-19T08:25:31.916Z,0.50
2018-02-19T08:26:34.442Z,0.50
2018-02-19T08:27:37.726Z,0.60
2018-02-19T08:28:41.020Z,0.60
2018-02-19T08:29:43.630Z,0.70
2018-02-19T08:30:46.914Z,0.70
2018-02-19T08:31:49.437Z,0.70
2018-02-19T08:32:52.736Z,0.70
2018-02-19T08:33:55.253Z,0.70
2018-02-19T08:34:57.807Z,0.70
2018-02-19T08:36:00.327Z,0.80
2018-02-19T08:37:02.886Z,0.80
2018-02-19T08:38:06.175Z,0.90
2018-02-19T08:39:08.696Z,0.90
2018-02-19T08:40:11.241Z,1.00
2018-02-19T08:41:13.777Z,1.00
2018-02-19T08:42:16.330Z,1.00
2018-02-19T08:43:19.620Z,1.00
2018-02-19T08:44:22.152Z,1.10
2018-02-19T08:45:24.678Z,1.00
2018-02-19T08:46:27.238Z,1.10
2018-02-19T08:47:29.785Z,1.10
2018-02-19T08:48:32.325Z,1.00
2018-02-19T08:49:34.846Z,1.10
2018-02-19T08:50:37.389Z,1.10
2018-02-19T08:51:39.963Z,1.10
2018-02-19T08:52:42.487Z,1.10
2018-02-19T08:53:45.021Z,1.10
2018-02-19T08:54:47.540Z,1.00
2018-02-19T08:55:50.825Z,1.00
2018-02-19T08:56:54.150Z,1.00
2018-02-19T08:57:56.673Z,1.00
2018-02-19T08:58:59.994Z,0.90
2018-02-19T09:00:02.517Z,0.90
2018-02-19T09:01:05.803Z,0.90
2018-02-19T09:02:09.128Z,0.90
2018-02-19T09:03:11.660Z,0.80
2018-02-19T09:04:14.958Z,0.90
2018-02-19T09:05:17.487Z,0.90
2018-02-19T09:06:20.014Z,0.90
2018-02-19T09:07:22.573Z,1.00
2018-02-19T09:08:25.098Z,1.00
2018-02-19T09:09:28.385Z,1.10
2018-02-19T09:10:31.680Z,1.10
2018-02-19T09:11:34.238Z,1.10
2018-02-19T09:12:37.523Z,1.10
2018-02-19T09:13:40.819Z,1.10
2018-02-19T09:14:43.342Z,1.10
2018-02-19T09:15:45.870Z,1.10
2018-02-19T09:16:48.521Z,1.10
2018-02-19T09:17:51.036Z,1.20
2018-02-19T09:18:53.574Z,1.20
2018-02-19T09:19:56.098Z,1.20
2018-02-19T09:20:59.432Z,1.20
2018-02-19T09:22:02.083Z,1.20
2018-02-19T09:23:04.614Z,1.30
2018-02-19T09:24:07.904Z,1.30
2018-02-19T09:25:11.251Z,1.30
2018-02-19T09:26:13.776Z,1.30
2018-02-19T09:27:16.314Z,1.30
2018-02-19T09:28:19.650Z,1.40
2018-02-19T09:29:22.169Z,1.40
2018-02-19T09:30:25.498Z,1.50
2018-02-19T09:31:28.047Z,1.50
2018-02-19T09:32:30.562Z,1.50
2018-02-19T09:33:33.077Z,1.50
2018-02-19T09:34:35.639Z,1.60
2018-02-19T09:35:38.167Z,1.60
2018-02-19T09:36:40.690Z,1.60
2018-02-19T09:37:43.205Z,1.60
2018-02-19T09:38:45.725Z,1.60
2018-02-19T09:39:48.291Z,1.60
2018-02-19T09:40:50.812Z,1.60
2018-02-19T09:41:54.106Z,1.60
2018-02-19T09:42:57.663Z,1.50
2018-02-19T09:44:00.186Z,1.60
2018-02-19T09:45:02.749Z,1.50
2018-02-19T09:46:05.314Z,1.50
2018-02-19T09:47:07.841Z,1.50
2018-02-19T09:48:10.369Z,1.50
2018-02-19T09:49:12.895Z,1.50
2018-02-19T09:50:16.181Z,1.50
2018-02-19T09:51:18.731Z,1.50
2018-02-19T09:52:22.025Z,1.50
2018-02-19T09:53:25.309Z,1.50
2018-02-19T09:54:28.598Z,1.50
2018-02-19T09:55:31.144Z,1.50
2018-02-19T09:56:33.666Z,1.60
2018-02-19T09:57:36.230Z,1.60
2018-02-19T09:58:38.754Z,1.60
2018-02-19T09:59:42.041Z,1.70
2018-02-19T10:00:45.325Z,1.70
2018-02-19T10:01:48.613Z,1.80
2018-02-19T10:02:51.929Z,1.80
2018-02-19T10:03:54.446Z,1.70
2018-02-19T10:04:57.777Z,1.80
2018-02-19T10:06:00.301Z,1.80
2018-02-19T10:07:03.765Z,1.80
2018-02-19T10:08:06.344Z,1.80
2018-02-19T10:09:08.869Z,1.90
2018-02-19T10:10:11.385Z,1.90
2018-02-19T10:11:14.708Z,1.90
2018-02-19T10:12:17.224Z,1.90
2018-02-19T10:13:19.778Z,1.90
2018-02-19T10:14:22.305Z,1.90
2018-02-19T10:15:24.826Z,1.90
2018-02-19T10:16:28.124Z,2.00
2018-02-19T10:17:31.445Z,2.00
2018-02-19T10:18:34.057Z,2.00
2018-02-19T10:19:36.553Z,2.10
2018-02-19T10:20:39.082Z,2.20
2018-02-19T10:21:41.614Z,2.20
2018-02-19T10:22:44.141Z,2.30
2018-02-19T10:23:47.475Z,2.50
2018-02-19T10:24:49.998Z,2.50
2018-02-19T10:25:53.284Z,2.70
2018-02-19T10:26:55.810Z,2.70
2018-02-19T10:27:58.338Z,2.80
2018-02-19T10:29:00.901Z,2.90
2018-02-19T10:30:03.417Z,3.00
2018-02-19T10:31:06.029Z,3.10
2018-02-19T10:32:08.553Z,3.20
2018-02-19T10:33:11.072Z,3.30
2018-02-19T10:34:13.665Z,3.60
2018-02-19T10:35:16.185Z,3.90
2018-02-19T10:36:18.700Z,4.10
2018-02-19T10:37:21.236Z,4.20
2018-02-19T10:38:23.757Z,4.20
2018-02-19T10:39:27.084Z,4.20
2018-02-19T10:40:29.604Z,4.20
2018-02-19T10:41:32.901Z,4.00
2018-02-19T10:42:36.230Z,4.00
2018-02-19T10:43:38.750Z,4.00
2018-02-19T10:44:42.086Z,4.10
2018-02-19T10:45:44.593Z,4.10
2018-02-19T10:46:47.894Z,4.30
2018-02-19T10:47:51.218Z,4.40
2018-02-19T10:48:53.736Z,4.40
2018-02-19T10:49:57.073Z,4.60
2018-02-19T10:50:59.710Z,4.60
2018-02-19T10:52:02.226Z,4.80
2018-02-19T10:53:04.763Z,4.90
2018-02-19T10:54:07.280Z,4.90
2018-02-19T10:55:10.609Z,4.80
2018-02-19T10:56:13.136Z,4.80
2018-02-19T10:57:16.425Z,4.70
2018-02-19T10:58:19.718Z,4.80
2018-02-19T10:59:22.257Z,4.80
2018-02-19T11:02:00.181Z,4.60
2018-02-19T11:03:02.709Z,4.60
2018-02-19T11:04:05.241Z,4.60
2018-02-19T11:05:07.817Z,4.60
2018-02-19T11:06:10.342Z,4.60
2018-02-19T11:07:13.646Z,4.50
2018-02-19T11:08:16.166Z,4.50
2018-02-19T11:09:18.710Z,4.50
2018-02-19T11:10:21.247Z,4.60
2018-02-19T11:11:23.799Z,4.60
2018-02-19T11:12:26.334Z,4.40
2018-02-19T11:13:28.885Z,4.40
2018-02-19T11:14:31.406Z,4.40
2018-02-19T11:15:33.925Z,4.40
2018-02-19T11:16:36.449Z,4.40
2018-02-19T11:17:38.970Z,4.40
2018-02-19T11:18:41.522Z,4.30
2018-02-19T11:19:44.037Z,4.20
2018-02-19T11:20:46.559Z,4.20
2018-02-19T11:21:49.120Z,4.20
2018-02-19T11:22:51.650Z,4.20
2018-02-19T11:23:54.167Z,4.30
2018-02-19T11:24:57.453Z,4.30
2018-02-19T11:26:00.743Z,4.30
2018-02-19T11:27:04.069Z,4.20
2018-02-19T11:28:06.581Z,4.20
2018-02-19T11:29:09.107Z,4.20
2018-02-19T11:30:11.624Z,4.10
2018-02-19T11:31:14.957Z,4.00
2018-02-19T11:32:17.491Z,3.90
2018-02-19T11:33:20.014Z,3.90
2018-02-19T11:34:22.569Z,3.90
2018-02-19T11:35:25.098Z,3.80
2018-02-19T11:36:27.633Z,3.80
2018-02-19T11:37:30.915Z,3.90
2018-02-19T11:38:34.235Z,4.00
2018-02-19T11:39:36.766Z,4.00
2018-02-19T11:40:40.058Z,4.10
2018-02-19T11:41:42.619Z,4.10
2018-02-19T11:42:45.909Z,4.30
2018-02-19T11:43:49.230Z,4.20
2018-02-19T11:44:51.757Z,4.20
2018-02-19T11:45:55.037Z,4.30
2018-02-19T11:46:58.330Z,4.30
2018-02-19T11:48:01.618Z,4.30
2018-02-19T11:49:04.168Z,4.30
2018-02-19T11:50:07.472Z,4.30
2018-02-19T11:51:10.107Z,4.30
2018-02-19T11:52:12.723Z,4.40
2018-02-19T11:53:15.291Z,4.40
2018-02-19T11:54:17.818Z,4.30
2018-02-19T11:55:21.109Z,4.20
2018-02-19T11:56:24.438Z,4.20
2018-02-19T11:57:26.969Z,4.20
2018-02-19T11:58:30.307Z,4.20
2018-02-19T11:59:32.825Z,4.20
2018-02-19T12:00:35.351Z,4.20
2018-02-19T12:01:37.873Z,4.20
2018-02-19T12:02:40.389Z,4.30
2018-02-19T12:03:42.951Z,4.30
2018-02-19T12:04:45.780Z,4.30
2018-02-19T12:05:48.313Z,4.40
2018-02-19T12:06:51.604Z,4.60
2018-02-19T12:07:54.894Z,4.80
2018-02-19T12:08:57.422Z,4.70
2018-02-19T12:10:00.000Z,4.80
2018-02-19T12:11:03.314Z,5.00
2018-02-19T12:12:05.839Z,4.90
2018-02-19T12:13:08.389Z,4.90
2018-02-19T12:14:10.918Z,5.00
2018-02-19T12:15:13.492Z,5.00
2018-02-19T12:16:16.016Z,5.00
2018-02-19T12:17:18.537Z,5.00
2018-02-19T12:18:21.094Z,5.10
2018-02-19T12:19:23.628Z,5.20
2018-02-19T12:20:26.924Z,5.40
2018-02-19T12:21:29.449Z,5.40
2018-02-19T12:22:31.971Z,5.60
2018-02-19T12:23:34.521Z,5.80
2018-02-19T12:24:37.820Z,6.10
2018-02-19T12:25:40.349Z,6.10
2018-02-19T12:26:42.909Z,6.20
2018-02-19T12:27:45.461Z,6.20
2018-02-19T12:28:48.027Z,6.30
2018-02-19T12:29:50.550Z,6.40
2018-02-19T12:30:53.075Z,6.70
2018-02-19T12:31:55.594Z,7.00
2018-02-19T12:32:58.125Z,7.40
2018-02-19T12:34:01.541Z,7.60
2018-02-19T12:35:04.070Z,7.60
2018-02-19T12:36:07.362Z,7.70
2018-02-19T12:37:10.646Z,7.60
2018-02-19T12:38:13.306Z,7.60
2018-02-19T12:39:16.634Z,6.90
2018-02-19T12:40:19.160Z,6.90
2018-02-19T12:41:22.486Z,7.00
2018-02-19T12:42:25.010Z,7.00
2018-02-19T12:43:28.301Z,7.40
2018-02-19T12:44:31.642Z,7.40
2018-02-19T12:45:34.176Z,7.40
2018-02-19T12:46:36.729Z,7.00
2018-02-19T12:47:40.011Z,6.70
2018-02-19T12:48:42.525Z,6.70
2018-02-19T12:49:45.094Z,6.70
2018-02-19T12:50:47.625Z,6.70
2018-02-19T12:51:50.148Z,6.80
2018-02-19T12:52:52.671Z,6.80
2018-02-19T12:53:55.227Z,6.90
2018-02-19T12:54:57.788Z,7.10
2018-02-19T12:56:00.304Z,7.50
2018-02-19T12:57:02.825Z,7.40
2018-02-19T12:58:05.366Z,7.90
2018-02-19T12:59:08.655Z,8.70
2018-02-19T13:00:11.211Z,8.70
2018-02-19T13:01:14.546Z,9.00
2018-02-19T13:02:17.074Z,9.00
2018-02-19T13:03:19.666Z,8.90
2018-02-19T13:04:22.196Z,8.80
2018-02-19T13:05:25.488Z,9.00
2018-02-19T13:06:28.038Z,9.00
2018-02-19T13:07:31.331Z,8.60
2018-02-19T13:08:34.619Z,8.80
2018-02-19T13:09:37.902Z,8.90
2018-02-19T13:10:40.430Z,8.90
2018-02-19T13:11:42.986Z,9.00
2018-02-19T13:12:45.501Z,9.00
2018-02-19T13:13:48.785Z,9.00
2018-02-19T13:14:52.068Z,8.80
2018-02-19T13:15:55.357Z,8.30
2018-02-19T13:16:57.914Z,8.30
2018-02-19T13:18:01.215Z,7.80
2018-02-19T13:19:03.742Z,7.70
2018-02-19T13:20:06.258Z,7.70
2018-02-19T13:21:08.792Z,7.50
2018-02-19T13:22:12.128Z,7.50
2018-02-19T13:23:14.748Z,7.40
2018-02-19T13:24:18.069Z,7.20
2018-02-19T13:25:20.600Z,7.10
2018-02-19T13:26:23.167Z,7.10
2018-02-19T13:27:26.630Z,6.90
2018-02-19T13:28:29.155Z,6.90
2018-02-19T13:29:31.677Z,6.70
2018-02-19T13:30:34.961Z,6.40
2018-02-19T13:31:38.249Z,6.30
2018-02-19T13:32:41.578Z,6.30
2018-02-19T13:33:44.101Z,6.30
2018-02-19T13:34:47.418Z,6.20
2018-02-19T13:35:49.950Z,6.10
2018-02-19T13:36:52.744Z,6.00
2018-02-19T13:37:55.281Z,5.90
2018-02-19T13:38:58.574Z,5.90
2018-02-19T13:40:01.912Z,6.10
2018-02-19T13:41:04.496Z,6.10
2018-02-19T13:42:06.984Z,6.20
2018-02-19T13:43:10.302Z,6.40
2018-02-19T13:44:12.825Z,6.40
2018-02-19T13:45:16.377Z,6.50
2018-02-19T13:46:18.904Z,6.50
2018-02-19T13:47:21.447Z,6.70
2018-02-19T13:48:23.996Z,6.80
2018-02-19T13:49:26.527Z,6.90